createdAt,value
2019-02-28T10:18:58.452Z,23.60
2019-02-28T10:23:56.592Z,22.03
2019-02-28T10:28:49.803Z,23.47
2019-02-28T10:33:44.967Z,24.03
2019-02-28T10:38:39.731Z,26.30
2019-02-28T10:43:34.494Z,27.50
2019-02-28T10:48:31.295Z,26.03
2019-02-28T10:53:29.657Z,27.30
2019-02-28T10:58:31.643Z,27.80
2019-02-28T11:03:31.800Z,26.80
2019-02-28T11:08:27.065Z,25.37
2019-02-28T11:13:21.989Z,26.40
2019-02-28T11:18:16.848Z,24.63
2019-02-28T11:23:15.031Z,24.70
2019-02-28T11:28:09.189Z,23.03
2019-02-28T11:33:06.217Z,25.00
2019-02-28T11:38:02.149Z,23.00
2019-02-28T11:42:59.421Z,21.60
2019-02-28T11:47:56.487Z,23.33
2019-02-28T11:52:51.603Z,19.40
2019-02-28T11:57:46.771Z,19.00
2019-02-28T12:02:41.557Z,19.73
2019-02-28T12:07:36.332Z,20.60
2019-02-28T12:12:31.512Z,20.63
2019-02-28T12:17:28.541Z,20.63
2019-02-28T12:22:23.767Z,20.07
2019-02-28T12:27:24.413Z,19.20
2019-02-28T12:32:18.211Z,18.43
2019-02-28T12:37:13.012Z,18.70
2019-02-28T12:42:11.685Z,17.33
2019-02-28T12:47:07.702Z,17.90
2019-02-28T12:52:11.312Z,16.70
2019-02-28T12:57:05.002Z,15.47
2019-02-28T13:02:07.161Z,15.73
2019-02-28T13:07:02.330Z,16.77
2019-02-28T13:11:58.260Z,16.77
2019-02-28T13:16:54.559Z,15.27
2019-02-28T13:21:49.500Z,16.33
2019-02-28T13:26:44.336Z,15.90
2019-02-28T13:31:57.704Z,16.00
2019-02-28T13:36:54.235Z,16.40
2019-02-28T13:41:47.817Z,16.20
2019-02-28T15:00:15.753Z,14.73
2019-02-28T15:11:23.878Z,15.40
2019-02-28T15:16:22.366Z,14.97
2019-02-28T15:21:17.541Z,16.10
2019-02-28T15:26:12.312Z,15.57
2019-02-28T15:31:08.599Z,16.67
2019-02-28T15:36:04.466Z,17.13
2019-02-28T15:40:59.575Z,18.47
2019-02-28T15:45:54.754Z,18.87
2019-02-28T15:50:51.775Z,18.90
2019-02-28T15:55:47.088Z,19.03
2019-02-28T16:00:47.932Z,18.97
2019-02-28T16:05:44.137Z,17.43
2019-02-28T16:10:39.168Z,18.27
2019-02-28T16:15:33.948Z,17.63
2019-02-28T16:20:40.711Z,18.23
2019-02-28T16:25:35.639Z,16.20
2019-02-28T16:30:32.153Z,18.27
2019-02-28T16:35:28.963Z,20.27
2019-02-28T16:40:26.935Z,19.17
2019-02-28T16:45:37.587Z,18.57
2019-02-28T16:50:32.587Z,18.13
2019-02-28T16:55:30.914Z,19.17
2019-02-28T17:00:24.298Z,17.27
2019-02-28T17:05:19.420Z,17.77
2019-02-28T17:10:16.365Z,18.30
2019-02-28T17:15:19.560Z,18.37
2019-02-28T17:20:14.991Z,19.63
2019-02-28T17:25:09.947Z,18.07
2019-02-28T17:30:13.952Z,19.57
2019-02-28T17:35:15.308Z,18.10
2019-02-28T17:40:13.355Z,18.57
2019-02-28T17:45:17.197Z,19.97
2019-02-28T17:50:28.460Z,20.00
2019-02-28T17:55:54.414Z,21.27
2019-02-28T18:01:32.626Z,23.67
2019-02-28T18:07:30.105Z,36.80
2019-02-28T18:13:04.489Z,31.67
2019-02-28T18:18:53.218Z,28.13
2019-02-28T18:24:38.024Z,26.00
2019-02-28T18:30:10.167Z,33.30
2019-02-28T18:35:05.547Z,26.73
2019-02-28T18:40:00.699Z,27.57
2019-02-28T18:44:57.138Z,24.57
2019-02-28T18:49:52.174Z,23.60
2019-02-28T18:54:46.964Z,20.23
2019-02-28T18:59:57.160Z,18.70
2019-02-28T19:04:51.920Z,17.43
2019-02-28T19:09:46.837Z,16.53
2019-02-28T19:14:41.955Z,18.00
2019-02-28T19:19:36.785Z,17.37
2019-02-28T19:24:31.982Z,18.73
2019-02-28T19:29:26.824Z,19.40
2019-02-28T19:34:26.417Z,19.17
2019-02-28T19:39:25.366Z,14.73
2019-02-28T19:44:20.973Z,14.27
2019-02-28T19:49:15.788Z,11.80
2019-02-28T19:54:10.915Z,10.23
2019-02-28T19:59:06.135Z,10.10
2019-02-28T20:04:02.515Z,9.50
2019-02-28T20:08:57.340Z,12.30
2019-02-28T20:13:52.202Z,11.90
2019-02-28T20:18:47.037Z,9.57
2019-02-28T20:23:41.820Z,9.40
2019-02-28T20:28:36.632Z,8.10
2019-02-28T20:33:31.419Z,7.60
2019-02-28T20:38:26.668Z,7.17
2019-02-28T20:43:21.692Z,6.93
2019-02-28T20:48:18.022Z,6.53
2019-02-28T20:53:12.928Z,5.90
2019-02-28T20:58:08.810Z,6.23
2019-02-28T21:03:03.788Z,6.23
2019-02-28T21:07:58.715Z,5.77
2019-02-28T21:13:00.380Z,5.40
2019-02-28T21:17:57.368Z,5.60
2019-02-28T21:22:52.336Z,5.33
2019-02-28T21:27:47.531Z,5.40
2019-02-28T21:32:42.547Z,4.93
2019-02-28T21:37:37.868Z,5.10
2019-02-28T21:42:33.318Z,4.73
2019-02-28T21:47:28.258Z,4.67
2019-02-28T21:52:23.337Z,5.00
2019-02-28T21:57:24.919Z,4.87
2019-02-28T22:02:19.957Z,5.50
2019-02-28T22:07:14.928Z,6.13
2019-02-28T22:12:11.552Z,6.03
2019-02-28T22:17:06.521Z,6.30
2019-02-28T22:22:01.733Z,6.87
2019-02-28T22:26:56.787Z,7.23
2019-02-28T22:32:24.468Z,8.60
2019-02-28T22:37:16.766Z,8.73
2019-02-28T22:42:21.740Z,10.27
2019-02-28T22:47:08.507Z,10.07
2019-02-28T22:52:04.624Z,10.83
2019-02-28T22:56:59.887Z,9.93
2019-02-28T23:01:55.556Z,11.47
2019-02-28T23:06:50.596Z,11.93
2019-02-28T23:11:49.103Z,12.40
2019-02-28T23:16:44.580Z,13.10
2019-02-28T23:21:40.095Z,13.27
2019-02-28T23:27:13.197Z,12.63
2019-02-28T23:32:37.458Z,14.33
2019-02-28T23:37:32.407Z,14.53
2019-02-28T23:42:27.294Z,13.97
2019-02-28T23:47:22.362Z,13.43
2019-02-28T23:52:17.358Z,13.57
2019-02-28T23:57:12.806Z,14.43
